PHKFQ EBCI-EBCI
Flight info
| Callsign | PHKFQ |
|---|---|
| Flight time | 0h 12m |
| Altitude | 1000 |
| Route | EHLE EHLE |
| Aircraft | DA40/L-VGD/C |
Departure
| Time | 2026-05-07 13:38 |
|---|---|
| Airport | Brussels South Charleroi Airport (EBCI) |
Arrival
| Time | 2026-05-07 13:50 |
|---|---|
| Airport | Brussels South Charleroi Airport (EBCI) |
| Time | Latitude | Longitude | Altitude | Speed | Heading |
|---|---|---|---|---|---|
| 2026-05-07 13:15 | 50.45974 | 4.45853 | 616 ft | 0 kts | 245° |
| 2026-05-07 13:34 | 50.45969 | 4.45824 | 623 ft | 7 kts | 304° |
| 2026-05-07 13:35 | 50.46030 | 4.45830 | 619 ft | 14 kts | 69° |
| 2026-05-07 13:35 | 50.46053 | 4.45998 | 615 ft | 18 kts | 83° |
| 2026-05-07 13:35 | 50.46095 | 4.46188 | 620 ft | 13 kts | 62° |
| 2026-05-07 13:35 | 50.46106 | 4.46216 | 616 ft | 1 kts | 52° |
| 2026-05-07 13:36 | 50.46127 | 4.46244 | 613 ft | 7 kts | 30° |
| 2026-05-07 13:36 | 50.46166 | 4.46241 | 613 ft | 0 kts | 334° |
| 2026-05-07 13:36 | 50.46168 | 4.46239 | 619 ft | 1 kts | 335° |
| 2026-05-07 13:37 | 50.46197 | 4.46214 | 617 ft | 9 kts | 334° |
| 2026-05-07 13:37 | 50.46225 | 4.46112 | 612 ft | 15 kts | 250° |
| 2026-05-07 13:37 | 50.46129 | 4.45775 | 620 ft | 67 kts | 246° |
| 2026-05-07 13:37 | 50.45876 | 4.44912 | 756 ft | 94 kts | 248° |
| 2026-05-07 13:38 | 50.45585 | 4.43888 | 927 ft | 112 kts | 246° |
| 2026-05-07 13:38 | 50.45222 | 4.42753 | 1157 ft | 117 kts | 237° |
| 2026-05-07 13:38 | 50.44558 | 4.42042 | 1333 ft | 118 kts | 179° |
| 2026-05-07 13:38 | 50.43955 | 4.42756 | 1353 ft | 122 kts | 102° |
| 2026-05-07 13:39 | 50.44179 | 4.44075 | 1285 ft | 128 kts | 63° |
| 2026-05-07 13:39 | 50.44600 | 4.45337 | 1256 ft | 132 kts | 61° |
| 2026-05-07 13:39 | 50.45059 | 4.46540 | 1330 ft | 123 kts | 57° |
| 2026-05-07 13:39 | 50.45522 | 4.47621 | 1343 ft | 116 kts | 54° |
| 2026-05-07 13:40 | 50.45944 | 4.48524 | 1279 ft | 86 kts | 57° |
| 2026-05-07 13:40 | 50.46411 | 4.48824 | 1376 ft | 88 kts | 341° |
| 2026-05-07 13:40 | 50.46709 | 4.47939 | 1142 ft | 106 kts | 274° |
| 2026-05-07 13:40 | 50.46454 | 4.46904 | 834 ft | 101 kts | 245° |
| 2026-05-07 13:41 | 50.46175 | 4.45930 | 636 ft | 88 kts | 246° |
| 2026-05-07 13:41 | 50.45940 | 4.45137 | 619 ft | 74 kts | 247° |
| 2026-05-07 13:41 | 50.45725 | 4.44344 | 743 ft | 86 kts | 246° |
| 2026-05-07 13:41 | 50.45437 | 4.43464 | 1011 ft | 96 kts | 241° |
| 2026-05-07 13:42 | 50.45052 | 4.42501 | 1164 ft | 116 kts | 233° |
| 2026-05-07 13:42 | 50.44349 | 4.42255 | 1354 ft | 113 kts | 144° |
| 2026-05-07 13:42 | 50.44166 | 4.43332 | 1497 ft | 112 kts | 79° |
| 2026-05-07 13:42 | 50.44341 | 4.44608 | 1497 ft | 124 kts | 76° |
| 2026-05-07 13:43 | 50.44598 | 4.45906 | 1438 ft | 122 kts | 70° |
| 2026-05-07 13:43 | 50.44930 | 4.47114 | 1385 ft | 119 kts | 62° |
| 2026-05-07 13:43 | 50.45313 | 4.48206 | 1440 ft | 114 kts | 60° |
| 2026-05-07 13:43 | 50.45709 | 4.49205 | 1441 ft | 96 kts | 63° |
| 2026-05-07 13:44 | 50.45961 | 4.50083 | 1448 ft | 81 kts | 62° |
| 2026-05-07 13:44 | 50.46407 | 4.50432 | 1332 ft | 78 kts | 347° |
| 2026-05-07 13:44 | 50.46793 | 4.49826 | 1115 ft | 82 kts | 302° |
| 2026-05-07 13:44 | 50.46914 | 4.48965 | 954 ft | 82 kts | 269° |
| 2026-05-07 13:45 | 50.46779 | 4.48082 | 799 ft | 85 kts | 250° |
| 2026-05-07 13:45 | 50.46561 | 4.47277 | 704 ft | 76 kts | 246° |
| 2026-05-07 13:45 | 50.46351 | 4.46557 | 616 ft | 69 kts | 248° |
| 2026-05-07 13:45 | 50.46173 | 4.45928 | 619 ft | 59 kts | 249° |
| 2026-05-07 13:46 | 50.45995 | 4.45298 | 617 ft | 83 kts | 247° |
| 2026-05-07 13:46 | 50.45711 | 4.44383 | 815 ft | 99 kts | 243° |
| 2026-05-07 13:46 | 50.45369 | 4.43378 | 1001 ft | 114 kts | 242° |
| 2026-05-07 13:46 | 50.44917 | 4.42270 | 1113 ft | 125 kts | 223° |
| 2026-05-07 13:47 | 50.44147 | 4.42085 | 1339 ft | 116 kts | 144° |
| 2026-05-07 13:47 | 50.44012 | 4.43183 | 1489 ft | 113 kts | 74° |
| 2026-05-07 13:47 | 50.44286 | 4.44392 | 1507 ft | 125 kts | 68° |
| 2026-05-07 13:47 | 50.44653 | 4.45665 | 1481 ft | 131 kts | 64° |
| 2026-05-07 13:48 | 50.45096 | 4.46961 | 1418 ft | 136 kts | 61° |
| 2026-05-07 13:48 | 50.45568 | 4.48237 | 1415 ft | 133 kts | 59° |
| 2026-05-07 13:48 | 50.46056 | 4.49391 | 1365 ft | 122 kts | 55° |
| 2026-05-07 13:48 | 50.46612 | 4.50223 | 1539 ft | 103 kts | 26° |
| 2026-05-07 13:49 | 50.47164 | 4.49702 | 1479 ft | 117 kts | 275° |
| 2026-05-07 13:49 | 50.46911 | 4.48485 | 1102 ft | 119 kts | 246° |
| 2026-05-07 13:49 | 50.46570 | 4.47324 | 695 ft | 116 kts | 246° |
| 2026-05-07 13:49 | 50.46277 | 4.46294 | 622 ft | 91 kts | 247° |
| 2026-05-07 13:50 | 50.46043 | 4.45457 | 622 ft | 77 kts | 244° |
| 2026-05-07 13:50 | 50.45835 | 4.44782 | 625 ft | 59 kts | 242° |
| 2026-05-07 13:50 | 50.45691 | 4.44286 | 627 ft | 44 kts | 251° |
| 2026-05-07 13:50 | 50.45576 | 4.43855 | 628 ft | 38 kts | 243° |
| 2026-05-07 13:51 | 50.45476 | 4.43721 | 639 ft | 14 kts | 147° |
| 2026-05-07 13:51 | 50.45445 | 4.43812 | 630 ft | 0 kts | 75° |
| 2026-05-07 13:51 | 50.45450 | 4.43835 | 634 ft | 6 kts | 68° |
| 2026-05-07 13:51 | 50.45482 | 4.43952 | 632 ft | 16 kts | 68° |
| 2026-05-07 13:52 | 50.45535 | 4.44140 | 627 ft | 21 kts | 62° |
| 2026-05-07 13:52 | 50.45600 | 4.44356 | 628 ft | 23 kts | 65° |
| 2026-05-07 13:52 | 50.45667 | 4.44588 | 627 ft | 22 kts | 67° |
| 2026-05-07 13:52 | 50.45721 | 4.44783 | 629 ft | 15 kts | 66° |
| 2026-05-07 13:53 | 50.45765 | 4.44935 | 622 ft | 17 kts | 65° |
| 2026-05-07 13:53 | 50.45820 | 4.45126 | 627 ft | 21 kts | 64° |
| 2026-05-07 13:53 | 50.45852 | 4.45271 | 619 ft | 4 kts | 149° |
| 2026-05-07 13:53 | 50.45849 | 4.45280 | 625 ft | 0 kts | 63° |